Denbigh, Canada
Current Conditions -  °F | °C
As of 10:01 PM on Monday 22 Dec 2014 (Local Time) from CYWA Reporting Station
Overcast Overcast  
Wind Chill: 17°   Ceiling: 900
Heat Index: 23°   Visibility: 9mi
Dew Point: 21°   Wind: 5mph
Humidity: 93%   Direction: 100°E
Pressure: 30.19"   Gusts: NA
Location:  45.15°N, 77.25°W
Report Text: CYWA 230301Z AUTO 10004KT 080V140 9SM OVC009 M05/M06 A3019
Loading
Personal Weather Stations






























Interactive Weather Map New forecast layout! Learn more

10-Day Weather Forecast

Advertisements
Track Severe Weather on mobile